Time;durP1;ratioP1;P1;durP2;ratioP2;P2;SDS_P1;SDS_P2;PMS_P1;PMS_P2;Temp;Humidity;BMP_temperature;BMP_pressure;BME280_temperature;BME280_humidity;BME280_pressure;Samples;Min_cycle;Max_cycle;Signal;HPM_P1;HPM_P2
2023/08/15 00:01:04;;;;;;;18.73;17.63;;;;;;;;;;5014766;28;21013;-41
2023/08/15 00:03:32;;;;;;;19.07;17.73;;;;;;;;;;5014052;28;20468;-40
2023/08/15 00:06:00;;;;;;;22.97;21.37;;;;;;;;;;5014827;28;20854;-42
2023/08/15 00:08:27;;;;;;;19.17;17.90;;;;;;;;;;5014711;28;20933;-40
2023/08/15 00:10:55;;;;;;;18.67;17.67;;;;;;;;;;5014746;28;20500;-40
2023/08/15 00:13:24;;;;;;;19.50;18.40;;;;;;;;;;5013754;28;20480;-40
2023/08/15 00:15:51;;;;;;;21.67;20.30;;;;;;;;;;5014566;28;20519;-40
2023/08/15 00:18:19;;;;;;;20.07;18.87;;;;;;;;;;5014452;28;20868;-41
2023/08/15 00:20:47;;;;;;;19.10;18.20;;;;;;;;;;5014412;28;20472;-40
2023/08/15 00:23:14;;;;;;;19.40;18.20;;;;;;;;;;5013702;28;20832;-40
2023/08/15 00:25:42;;;;;;;21.40;20.40;;;;;;;;;;5014357;28;20843;-41
2023/08/15 00:28:11;;;;;;;22.90;21.20;;;;;;;;;;5014705;28;20521;-40
2023/08/15 00:30:39;;;;;;;22.00;20.80;;;;;;;;;;5014331;28;20480;-40
2023/08/15 00:33:07;;;;;;;20.80;19.70;;;;;;;;;;5013427;28;20592;-40
2023/08/15 00:35:34;;;;;;;21.93;20.93;;;;;;;;;;5014077;28;20838;-40
2023/08/15 00:38:02;;;;;;;21.00;19.90;;;;;;;;;;5014223;28;20441;-41
2023/08/15 00:40:29;;;;;;;21.03;19.60;;;;;;;;;;5014032;28;20535;-41
2023/08/15 00:42:57;;;;;;;20.40;19.47;;;;;;;;;;5014132;28;20514;-40
2023/08/15 00:45:25;;;;;;;23.50;22.17;;;;;;;;;;5013528;28;20482;-41
2023/08/15 00:47:54;;;;;;;20.83;19.87;;;;;;;;;;5013965;28;20518;-42
2023/08/15 00:50:21;;;;;;;22.13;20.87;;;;;;;;;;5014219;28;20459;-43
2023/08/15 00:52:49;;;;;;;23.33;22.27;;;;;;;;;;5013394;28;20563;-40
2023/08/15 00:55:17;;;;;;;22.20;20.87;;;;;;;;;;5013329;28;21044;-40
2023/08/15 00:57:45;;;;;;;20.97;19.93;;;;;;;;;;5014024;28;20900;-40
2023/08/15 01:00:13;;;;;;;23.63;22.23;;;;;;;;;;5013765;28;20433;-40
2023/08/15 01:02:42;;;;;;;24.10;22.43;;;;;;;;;;5013282;28;20487;-41
2023/08/15 01:05:12;;;;;;;23.07;21.47;;;;;;;;;;5013082;28;20458;-40
2023/08/15 01:07:39;;;;;;;22.43;21.23;;;;;;;;;;5013877;28;20438;-40
2023/08/15 01:10:07;;;;;;;23.83;21.93;;;;;;;;;;5013813;28;20441;-42
2023/08/15 01:12:38;;;;;;;21.77;20.67;;;;;;;;;;5013153;28;20568;-42
2023/08/15 01:15:07;;;;;;;22.13;21.00;;;;;;;;;;5013085;28;20465;-41
2023/08/15 01:17:36;;;;;;;26.20;24.70;;;;;;;;;;5013657;28;20437;-41
2023/08/15 01:20:07;;;;;;;23.67;22.30;;;;;;;;;;5013373;28;20464;-40
2023/08/15 01:22:37;;;;;;;23.60;22.13;;;;;;;;;;5013384;28;20504;-40
2023/08/15 01:25:07;;;;;;;25.73;24.37;;;;;;;;;;5012708;28;20461;-40
2023/08/15 01:27:34;;;;;;;26.23;24.40;;;;;;;;;;5013433;28;20428;-42
2023/08/15 01:30:02;;;;;;;24.33;22.93;;;;;;;;;;5012944;28;20437;-40
2023/08/15 01:32:34;;;;;;;25.07;23.60;;;;;;;;;;5012869;28;20488;-41
2023/08/15 01:35:06;;;;;;;25.87;24.13;;;;;;;;;;5012504;28;21001;-41
2023/08/15 01:37:35;;;;;;;27.30;25.63;;;;;;;;;;5013171;28;20487;-41
2023/08/15 01:40:03;;;;;;;36.17;33.67;;;;;;;;;;5013188;28;20872;-41
2023/08/15 01:42:33;;;;;;;38.37;35.60;;;;;;;;;;5012741;28;20449;-41
2023/08/15 01:45:01;;;;;;;37.87;35.23;;;;;;;;;;5012375;28;20456;-41
2023/08/15 01:47:30;;;;;;;40.80;38.40;;;;;;;;;;5013010;28;20476;-41
2023/08/15 01:49:58;;;;;;;39.30;37.10;;;;;;;;;;5013045;28;20436;-40
2023/08/15 01:52:25;;;;;;;39.30;37.10;;;;;;;;;;5012597;28;20508;-43
2023/08/15 01:54:53;;;;;;;41.73;39.37;;;;;;;;;;5012307;28;20468;-42
2023/08/15 01:57:20;;;;;;;41.13;38.80;;;;;;;;;;5012707;28;20790;-40
2023/08/15 01:59:49;;;;;;;41.03;38.33;;;;;;;;;;5012905;28;20772;-42
2023/08/15 02:02:17;;;;;;;41.83;39.33;;;;;;;;;;5012423;28;20488;-41
2023/08/15 02:04:44;;;;;;;47.60;44.50;;;;;;;;;;5012188;28;20457;-41
2023/08/15 02:07:12;;;;;;;48.40;45.20;;;;;;;;;;5012792;28;20483;-41
2023/08/15 02:09:39;;;;;;;50.23;46.83;;;;;;;;;;5012580;28;20433;-41
2023/08/15 02:12:07;;;;;;;48.30;45.30;;;;;;;;;;5012127;28;20560;-41
2023/08/15 02:14:35;;;;;;;46.83;44.03;;;;;;;;;;5012105;28;20803;-41
2023/08/15 02:17:04;;;;;;;47.93;45.30;;;;;;;;;;5012473;28;20430;-41
2023/08/15 02:19:31;;;;;;;50.10;47.10;;;;;;;;;;5012359;28;20938;-41
2023/08/15 02:21:59;;;;;;;48.20;45.33;;;;;;;;;;5012170;28;20429;-41
2023/08/15 02:24:26;;;;;;;44.43;41.70;;;;;;;;;;5011787;28;20492;-41
2023/08/15 02:26:54;;;;;;;53.50;50.17;;;;;;;;;;5012261;28;20441;-40
2023/08/15 02:29:22;;;;;;;50.20;47.47;;;;;;;;;;5012455;28;20929;-40
2023/08/15 02:31:49;;;;;;;49.47;46.37;;;;;;;;;;5011717;28;20468;-40
2023/08/15 02:34:18;;;;;;;48.93;46.17;;;;;;;;;;5011721;28;20488;-41
2023/08/15 02:36:47;;;;;;;48.00;45.07;;;;;;;;;;5012061;28;20516;-43
2023/08/15 02:39:15;;;;;;;47.80;45.13;;;;;;;;;;5011734;28;20445;-40
2023/08/15 02:41:43;;;;;;;49.43;46.43;;;;;;;;;;5011518;28;20781;-40
2023/08/15 02:44:10;;;;;;;47.83;45.10;;;;;;;;;;5011081;28;20952;-40
2023/08/15 02:46:38;;;;;;;52.70;49.40;;;;;;;;;;5012094;28;20437;-41
2023/08/15 02:49:06;;;;;;;52.13;49.13;;;;;;;;;;5011755;28;20490;-42
2023/08/15 02:51:35;;;;;;;49.27;46.57;;;;;;;;;;5011700;28;20515;-40
2023/08/15 02:54:03;;;;;;;50.43;47.73;;;;;;;;;;5011455;28;20544;-40
2023/08/15 02:56:30;;;;;;;50.03;47.43;;;;;;;;;;5011618;28;20942;-42
2023/08/15 02:58:58;;;;;;;51.03;48.43;;;;;;;;;;5010874;28;20437;-40
2023/08/15 03:01:26;;;;;;;46.50;43.93;;;;;;;;;;4996055;28;20531;-41
2023/08/15 03:03:53;;;;;;;47.87;45.57;;;;;;;;;;4991094;28;20458;-43
2023/08/15 03:06:20;;;;;;;52.73;49.50;;;;;;;;;;4992326;28;20440;-41
2023/08/15 03:08:49;;;;;;;57.27;53.87;;;;;;;;;;4992089;28;20433;-41
2023/08/15 03:11:17;;;;;;;54.07;51.03;;;;;;;;;;4992011;28;20438;-41
2023/08/15 03:13:44;;;;;;;52.03;49.13;;;;;;;;;;4991667;28;20470;-40
2023/08/15 03:16:10;;;;;;;50.57;47.57;;;;;;;;;;4991975;28;20429;-40
2023/08/15 03:18:38;;;;;;;50.90;48.20;;;;;;;;;;4992006;28;20434;-41
2023/08/15 03:21:08;;;;;;;51.57;48.60;;;;;;;;;;4992197;28;20442;-41
2023/08/15 03:23:37;;;;;;;50.67;47.77;;;;;;;;;;4991428;28;20470;-42
2023/08/15 03:26:06;;;;;;;49.77;47.23;;;;;;;;;;4992101;28;20476;-40
2023/08/15 03:28:34;;;;;;;49.60;47.17;;;;;;;;;;4992018;28;20511;-42
2023/08/15 03:31:04;;;;;;;50.70;48.00;;;;;;;;;;4991764;28;20492;-41
2023/08/15 03:33:31;;;;;;;50.83;48.33;;;;;;;;;;4991251;28;20464;-41
2023/08/15 03:35:59;;;;;;;45.70;43.17;;;;;;;;;;4992224;28;20560;-41
2023/08/15 03:38:26;;;;;;;46.60;44.40;;;;;;;;;;4992042;28;20500;-42
2023/08/15 03:41:01;;;;;;;44.70;42.60;;;;;;;;;;4991987;28;20534;-41
2023/08/15 03:43:30;;;;;;;47.20;44.80;;;;;;;;;;4991144;28;20511;-41
2023/08/15 03:45:57;;;;;;;43.80;41.57;;;;;;;;;;4992105;28;20468;-45
2023/08/15 03:48:25;;;;;;;46.80;44.40;;;;;;;;;;4992028;28;20449;-41
2023/08/15 03:50:53;;;;;;;43.87;41.43;;;;;;;;;;4992086;28;20911;-40
2023/08/15 03:53:21;;;;;;;46.40;44.13;;;;;;;;;;4991252;28;20469;-40
2023/08/15 03:55:49;;;;;;;46.80;44.17;;;;;;;;;;4995503;28;20430;-42
2023/08/15 03:58:16;;;;;;;46.20;43.40;;;;;;;;;;4995213;28;20437;-43
2023/08/15 04:00:45;;;;;;;44.10;42.17;;;;;;;;;;4995316;28;20975;-40
2023/08/15 04:03:12;;;;;;;45.13;43.00;;;;;;;;;;4994421;28;21201;-41
2023/08/15 04:05:40;;;;;;;47.87;45.30;;;;;;;;;;5008766;28;20464;-40
2023/08/15 04:08:07;;;;;;;49.53;47.03;;;;;;;;;;5014750;28;20437;-41
2023/08/15 04:10:39;;;;;;;46.80;44.40;;;;;;;;;;5014763;28;21018;-40
2023/08/15 04:13:07;;;;;;;47.97;45.37;;;;;;;;;;5014264;28;21039;-40
2023/08/15 04:15:35;;;;;;;44.20;41.90;;;;;;;;;;5014478;28;20437;-45
2023/08/15 04:18:04;;;;;;;47.27;44.60;;;;;;;;;;5014581;28;20472;-43
2023/08/15 04:20:32;;;;;;;48.77;46.27;;;;;;;;;;5014529;28;20440;-40
2023/08/15 04:23:00;;;;;;;45.23;43.03;;;;;;;;;;5014240;28;20511;-40
2023/08/15 04:25:27;;;;;;;46.20;43.63;;;;;;;;;;5013829;28;20464;-42
2023/08/15 04:27:58;;;;;;;43.90;41.50;;;;;;;;;;5014699;28;20421;-41
2023/08/15 04:30:26;;;;;;;43.90;41.60;;;;;;;;;;5014539;28;20457;-41
2023/08/15 04:32:54;;;;;;;39.93;37.73;;;;;;;;;;5013976;28;20461;-40
2023/08/15 04:35:23;;;;;;;40.23;38.23;;;;;;;;;;5013697;28;20464;-41
2023/08/15 04:37:51;;;;;;;41.10;38.70;;;;;;;;;;5014111;28;20437;-40
2023/08/15 04:40:29;;;;;;;37.03;34.93;;;;;;;;;;5014175;28;20437;-43
2023/08/15 04:42:57;;;;;;;35.20;33.33;;;;;;;;;;5014098;28;20517;-40
2023/08/15 04:45:24;;;;;;;36.20;34.20;;;;;;;;;;5013637;28;20535;-40
2023/08/15 04:47:52;;;;;;;32.77;30.87;;;;;;;;;;5014035;28;20468;-40
2023/08/15 04:50:20;;;;;;;34.73;32.83;;;;;;;;;;5013876;28;20524;-40
2023/08/15 04:52:49;;;;;;;30.97;29.43;;;;;;;;;;5013930;28;20453;-41
2023/08/15 04:55:16;;;;;;;29.13;27.50;;;;;;;;;;5013225;28;20484;-41
2023/08/15 04:57:44;;;;;;;29.90;28.30;;;;;;;;;;5013892;28;20820;-42
2023/08/15 05:00:12;;;;;;;27.63;25.90;;;;;;;;;;5013690;28;20437;-43
2023/08/15 05:02:40;;;;;;;29.67;28.27;;;;;;;;;;5013227;28;20487;-42
2023/08/15 05:05:10;;;;;;;28.30;26.70;;;;;;;;;;5012037;28;20977;-40
2023/08/15 05:07:38;;;;;;;25.80;24.53;;;;;;;;;;5013752;28;20455;-42
2023/08/15 05:10:08;;;;;;;26.60;24.53;;;;;;;;;;5013438;28;20531;-40
2023/08/15 05:12:36;;;;;;;24.73;23.53;;;;;;;;;;5013280;28;20865;-40
2023/08/15 05:15:07;;;;;;;26.63;25.23;;;;;;;;;;5012972;28;20564;-41
2023/08/15 05:17:35;;;;;;;26.73;25.27;;;;;;;;;;5013391;28;20435;-41
2023/08/15 05:20:03;;;;;;;26.40;24.97;;;;;;;;;;5013235;28;20432;-40
2023/08/15 05:22:31;;;;;;;25.50;24.20;;;;;;;;;;5013127;28;20484;-43
2023/08/15 05:24:58;;;;;;;26.13;24.60;;;;;;;;;;5012899;28;20554;-40
2023/08/15 05:27:27;;;;;;;24.97;23.77;;;;;;;;;;5013126;28;20440;-40
2023/08/15 05:29:55;;;;;;;24.70;23.50;;;;;;;;;;5013131;28;20437;-41
2023/08/15 05:32:22;;;;;;;23.33;22.03;;;;;;;;;;5012753;28;20459;-40
2023/08/15 05:34:50;;;;;;;22.80;21.50;;;;;;;;;;5012552;28;20580;-42
2023/08/15 05:37:17;;;;;;;23.83;22.63;;;;;;;;;;5013109;28;20435;-41
2023/08/15 05:39:46;;;;;;;23.33;22.23;;;;;;;;;;5013080;28;20839;-41
2023/08/15 05:42:17;;;;;;;23.63;22.37;;;;;;;;;;5012674;28;20467;-42
2023/08/15 05:44:47;;;;;;;23.33;21.97;;;;;;;;;;5012686;28;21165;-42
2023/08/15 05:47:14;;;;;;;24.03;22.50;;;;;;;;;;5033828;23;20492;-41
2023/08/15 05:49:42;;;;;;;23.27;22.07;;;;;;;;;;5031791;28;20523;-40
2023/08/15 05:52:10;;;;;;;22.43;21.30;;;;;;;;;;5031922;28;20531;-40
2023/08/15 05:54:37;;;;;;;24.20;22.80;;;;;;;;;;5030961;28;20480;-42
2023/08/15 05:57:05;;;;;;;22.87;21.37;;;;;;;;;;5031509;28;20470;-41
2023/08/15 05:59:32;;;;;;;24.00;22.73;;;;;;;;;;5032034;28;20431;-41
2023/08/15 06:02:01;;;;;;;23.17;22.07;;;;;;;;;;5031484;28;20809;-41
2023/08/15 06:04:30;;;;;;;23.10;21.60;;;;;;;;;;5031235;28;20464;-41
2023/08/15 06:06:58;;;;;;;22.10;20.97;;;;;;;;;;5031333;28;20538;-40
2023/08/15 06:09:25;;;;;;;22.23;20.70;;;;;;;;;;5031493;28;20442;-46
2023/08/15 06:11:52;;;;;;;21.27;20.17;;;;;;;;;;5031171;28;20463;-41
2023/08/15 06:14:20;;;;;;;21.17;20.13;;;;;;;;;;5031046;28;21080;-40
2023/08/15 06:16:47;;;;;;;21.53;20.33;;;;;;;;;;5031341;28;20451;-40
2023/08/15 06:19:17;;;;;;;22.70;21.37;;;;;;;;;;5031446;28;20435;-41
2023/08/15 06:21:46;;;;;;;21.50;20.40;;;;;;;;;;5031391;28;20427;-41
2023/08/15 06:24:14;;;;;;;24.07;22.73;;;;;;;;;;5031169;28;20494;-41
2023/08/15 06:26:41;;;;;;;24.70;22.87;;;;;;;;;;5031264;28;20448;-41
2023/08/15 06:29:09;;;;;;;23.70;22.60;;;;;;;;;;5031732;28;20433;-40
2023/08/15 06:31:37;;;;;;;22.90;21.60;;;;;;;;;;5030792;28;20998;-41
2023/08/15 06:34:04;;;;;;;24.07;22.63;;;;;;;;;;5030798;28;20888;-40
2023/08/15 06:36:34;;;;;;;22.57;21.40;;;;;;;;;;5031133;28;20455;-41
2023/08/15 06:39:02;;;;;;;20.63;19.33;;;;;;;;;;5031479;28;20438;-42
2023/08/15 06:41:30;;;;;;;18.10;17.00;;;;;;;;;;5030987;28;20870;-42
2023/08/15 06:43:58;;;;;;;18.27;17.37;;;;;;;;;;5030465;28;20483;-42
2023/08/15 06:46:25;;;;;;;19.13;17.93;;;;;;;;;;5030799;28;20487;-39
2023/08/15 06:48:52;;;;;;;14.20;13.40;;;;;;;;;;5030789;28;21000;-38
2023/08/15 06:51:20;;;;;;;13.20;12.20;;;;;;;;;;5030805;28;20446;-39
2023/08/15 06:53:52;;;;;;;10.77;9.73;;;;;;;;;;5030439;28;20217;-39
2023/08/15 06:56:20;;;;;;;10.20;9.40;;;;;;;;;;5030991;28;20575;-39
2023/08/15 06:58:47;;;;;;;10.60;9.67;;;;;;;;;;5031074;28;20662;-38
2023/08/15 07:01:15;;;;;;;11.47;10.57;;;;;;;;;;5030446;28;20197;-37
2023/08/15 07:03:43;;;;;;;13.87;8.90;;;;;;;;;;5030566;28;20533;-39
2023/08/15 07:06:10;;;;;;;9.67;8.97;;;;;;;;;;5030596;28;20509;-38
2023/08/15 07:08:38;;;;;;;10.53;9.77;;;;;;;;;;5030986;28;20428;-42
2023/08/15 07:11:07;;;;;;;11.03;10.23;;;;;;;;;;5030571;28;20515;-38
2023/08/15 07:13:35;;;;;;;9.53;8.83;;;;;;;;;;5029638;28;21080;-39
2023/08/15 07:16:02;;;;;;;10.73;10.03;;;;;;;;;;5030383;28;20525;-38
2023/08/15 07:18:30;;;;;;;9.90;9.30;;;;;;;;;;5031095;28;20435;-39
2023/08/15 07:20:59;;;;;;;10.47;9.67;;;;;;;;;;5030960;28;20483;-39
2023/08/15 07:23:27;;;;;;;11.67;10.60;;;;;;;;;;5029814;28;20975;-38
2023/08/15 07:25:54;;;;;;;10.20;9.50;;;;;;;;;;5030761;28;20452;-40
2023/08/15 07:28:23;;;;;;;10.43;9.53;;;;;;;;;;5031108;28;20506;-40
2023/08/15 07:30:51;;;;;;;10.40;9.70;;;;;;;;;;5034352;28;20427;-41
2023/08/15 07:33:18;;;;;;;11.13;10.27;;;;;;;;;;5033961;28;20917;-40
2023/08/15 07:35:46;;;;;;;9.93;9.23;;;;;;;;;;5034442;28;20481;-43
2023/08/15 07:38:14;;;;;;;10.67;10.00;;;;;;;;;;5034588;28;20436;-42
2023/08/15 07:40:42;;;;;;;11.63;10.70;;;;;;;;;;5034639;28;20435;-45
2023/08/15 07:43:09;;;;;;;11.53;10.50;;;;;;;;;;5033583;28;20525;-42
2023/08/15 07:45:38;;;;;;;11.50;10.40;;;;;;;;;;5034158;28;20928;-42
2023/08/15 07:48:06;;;;;;;12.00;11.20;;;;;;;;;;5034176;28;20539;-44
2023/08/15 07:50:34;;;;;;;10.97;10.23;;;;;;;;;;5034606;28;20470;-41
2023/08/15 07:53:01;;;;;;;11.13;10.43;;;;;;;;;;5033810;28;20471;-42
2023/08/15 07:55:30;;;;;;;13.43;12.20;;;;;;;;;;5033070;28;20479;-41
2023/08/15 07:57:59;;;;;;;12.27;11.20;;;;;;;;;;5034045;28;20439;-44
2023/08/15 08:00:27;;;;;;;12.07;10.10;;;;;;;;;;5033866;28;20924;-45
2023/08/15 08:02:59;;;;;;;11.10;10.40;;;;;;;;;;5033745;28;20436;-41
2023/08/15 08:05:28;;;;;;;11.00;10.27;;;;;;;;;;5032924;28;20852;-42
2023/08/15 08:07:59;;;;;;;12.23;11.33;;;;;;;;;;5033802;28;20478;-43
2023/08/15 08:10:26;;;;;;;10.80;10.20;;;;;;;;;;5033481;28;20467;-40
2023/08/15 08:12:54;;;;;;;12.60;11.60;;;;;;;;;;5033833;28;20506;-41
2023/08/15 08:15:23;;;;;;;12.30;11.10;;;;;;;;;;5032797;28;20563;-43
2023/08/15 08:17:50;;;;;;;13.57;12.20;;;;;;;;;;5033534;28;20460;-42
2023/08/15 08:20:21;;;;;;;13.20;11.87;;;;;;;;;;5033519;28;20435;-42
2023/08/15 08:22:48;;;;;;;12.20;11.40;;;;;;;;;;5032999;28;20435;-41
2023/08/15 08:25:17;;;;;;;13.67;12.30;;;;;;;;;;5032993;28;20881;-44
2023/08/15 08:27:45;;;;;;;13.70;12.50;;;;;;;;;;5033229;28;20997;-41
2023/08/15 08:30:13;;;;;;;13.50;12.70;;;;;;;;;;5033751;28;20440;-41
2023/08/15 08:32:40;;;;;;;13.33;12.20;;;;;;;;;;5033226;28;20940;-43
2023/08/15 08:35:08;;;;;;;12.23;11.53;;;;;;;;;;5032358;28;20479;-42
2023/08/15 08:37:37;;;;;;;12.57;11.70;;;;;;;;;;5032976;28;20817;-42
2023/08/15 08:40:05;;;;;;;12.30;11.53;;;;;;;;;;5032062;28;20447;-41
2023/08/15 08:42:35;;;;;;;13.87;12.67;;;;;;;;;;5032716;28;20501;-42
2023/08/15 08:45:03;;;;;;;11.60;10.73;;;;;;;;;;5032848;28;20464;-41
2023/08/15 08:47:31;;;;;;;12.93;11.93;;;;;;;;;;5032699;28;20521;-44
2023/08/15 08:49:59;;;;;;;12.50;11.23;;;;;;;;;;5032882;28;20443;-41
2023/08/15 08:52:27;;;;;;;13.67;12.43;;;;;;;;;;5032990;28;20467;-41
2023/08/15 08:54:56;;;;;;;12.60;11.70;;;;;;;;;;5032375;28;20880;-43
2023/08/15 08:57:25;;;;;;;12.73;12.03;;;;;;;;;;5032659;28;20545;-42
2023/08/15 08:59:54;;;;;;;12.57;11.67;;;;;;;;;;5032756;28;20527;-41
2023/08/15 09:02:22;;;;;;;13.77;12.77;;;;;;;;;;5032439;28;20513;-44
2023/08/15 09:04:50;;;;;;;13.37;12.60;;;;;;;;;;5032030;28;20466;-43
2023/08/15 09:07:17;;;;;;;14.67;13.53;;;;;;;;;;5032228;28;20487;-41
2023/08/15 09:09:45;;;;;;;14.73;13.73;;;;;;;;;;5032700;28;20440;-41
2023/08/15 09:12:31;;;;;;;15.73;14.43;;;;;;;;;;5032316;28;20446;-42
2023/08/15 09:14:58;;;;;;;15.07;14.03;;;;;;;;;;5031871;28;20534;-45
2023/08/15 09:17:26;;;;;;;15.37;14.30;;;;;;;;;;5032523;28;20475;-42
2023/08/15 09:19:54;;;;;;;17.13;15.70;;;;;;;;;;5032678;28;20440;-41
2023/08/15 09:22:22;;;;;;;16.13;14.33;;;;;;;;;;5031772;28;20917;-43
2023/08/15 09:24:50;;;;;;;17.20;15.90;;;;;;;;;;5031999;28;20468;-42
2023/08/15 09:27:17;;;;;;;16.27;14.93;;;;;;;;;;5031786;28;20479;-40
2023/08/15 09:29:47;;;;;;;17.07;15.87;;;;;;;;;;5032440;28;20431;-42
2023/08/15 09:32:14;;;;;;;19.00;17.30;;;;;;;;;;5031794;28;20518;-42
2023/08/15 09:34:42;;;;;;;16.83;15.37;;;;;;;;;;5031522;28;20828;-43
2023/08/15 09:37:09;;;;;;;16.23;14.90;;;;;;;;;;5031981;28;21018;-42
2023/08/15 09:39:37;;;;;;;15.23;14.10;;;;;;;;;;5032086;28;20523;-44
2023/08/15 09:42:05;;;;;;;17.67;16.17;;;;;;;;;;5031868;28;20796;-41
2023/08/15 09:44:34;;;;;;;14.80;13.83;;;;;;;;;;5031407;28;20460;-43
2023/08/15 09:47:04;;;;;;;17.40;15.60;;;;;;;;;;5031452;28;20541;-42
2023/08/15 09:49:32;;;;;;;16.13;15.03;;;;;;;;;;5032101;28;20447;-40
2023/08/15 09:52:00;;;;;;;16.83;15.60;;;;;;;;;;5031194;28;20428;-42
2023/08/15 09:54:28;;;;;;;14.00;13.07;;;;;;;;;;5031116;28;21022;-40
2023/08/15 09:56:57;;;;;;;14.67;13.57;;;;;;;;;;5031459;28;20836;-40
2023/08/15 09:59:24;;;;;;;14.70;13.50;;;;;;;;;;5031625;28;20439;-44
2023/08/15 10:01:53;;;;;;;15.00;13.77;;;;;;;;;;5031112;28;20493;-39
2023/08/15 10:04:23;;;;;;;14.97;13.70;;;;;;;;;;5030905;28;21001;-40
2023/08/15 10:06:52;;;;;;;15.53;14.17;;;;;;;;;;5023293;28;20471;-40
2023/08/15 10:09:20;;;;;;;14.03;12.77;;;;;;;;;;5031513;28;20459;-43
2023/08/15 10:11:48;;;;;;;13.50;12.20;;;;;;;;;;5031380;28;20439;-43
2023/08/15 10:14:17;;;;;;;14.27;13.17;;;;;;;;;;5021621;28;20547;-42
2023/08/15 10:16:45;;;;;;;13.80;12.60;;;;;;;;;;5011736;28;20479;-41
2023/08/15 10:19:15;;;;;;;13.47;12.37;;;;;;;;;;5011687;28;20471;-42
2023/08/15 10:21:50;;;;;;;14.33;13.20;;;;;;;;;;5011205;28;20671;-44
2023/08/15 10:24:17;;;;;;;13.77;12.67;;;;;;;;;;5011365;28;20587;-44
2023/08/15 10:26:46;;;;;;;11.60;10.70;;;;;;;;;;5011489;28;20491;-41
2023/08/15 10:29:13;;;;;;;12.33;11.50;;;;;;;;;;5011893;28;20431;-44
2023/08/15 10:31:41;;;;;;;13.03;11.83;;;;;;;;;;5010941;28;20428;-40
2023/08/15 10:34:09;;;;;;;12.40;11.67;;;;;;;;;;5010527;28;20655;-41
2023/08/15 10:36:37;;;;;;;13.03;12.10;;;;;;;;;;5011152;28;20846;-41
2023/08/15 10:39:07;;;;;;;10.47;9.53;;;;;;;;;;5011428;28;20441;-41
2023/08/15 10:41:35;;;;;;;12.40;11.40;;;;;;;;;;5011145;28;20440;-43
2023/08/15 10:44:04;;;;;;;10.77;9.67;;;;;;;;;;5010947;28;20480;-41
2023/08/15 10:46:33;;;;;;;11.83;10.93;;;;;;;;;;5010695;28;20539;-44
2023/08/15 10:49:01;;;;;;;11.40;10.53;;;;;;;;;;5011244;28;20434;-41
2023/08/15 10:51:31;;;;;;;14.00;12.60;;;;;;;;;;5011057;28;20437;-40
2023/08/15 10:53:59;;;;;;;13.30;11.77;;;;;;;;;;5011122;28;20456;-42
2023/08/15 10:56:29;;;;;;;13.17;11.80;;;;;;;;;;5010770;28;20499;-41
2023/08/15 10:58:57;;;;;;;11.63;10.60;;;;;;;;;;5010894;28;20475;-42
2023/08/15 11:01:25;;;;;;;10.93;9.93;;;;;;;;;;5010644;28;20436;-43
2023/08/15 11:03:54;;;;;;;12.00;10.90;;;;;;;;;;5009787;28;20456;-44
2023/08/15 11:06:22;;;;;;;11.37;10.27;;;;;;;;;;5010938;28;20486;-42
2023/08/15 11:08:50;;;;;;;11.60;10.60;;;;;;;;;;4991276;28;20425;-43
2023/08/15 11:11:18;;;;;;;13.10;11.87;;;;;;;;;;4990795;28;20488;-41
2023/08/15 11:13:48;;;;;;;13.63;12.30;;;;;;;;;;4990643;28;20465;-41
2023/08/15 11:16:17;;;;;;;14.40;13.20;;;;;;;;;;4991175;28;20464;-45
2023/08/15 11:18:45;;;;;;;13.40;12.20;;;;;;;;;;4991349;28;20473;-43
2023/08/15 11:21:13;;;;;;;11.77;10.57;;;;;;;;;;4990751;28;20471;-43
2023/08/15 11:23:41;;;;;;;11.30;10.40;;;;;;;;;;4991074;28;20483;-41
2023/08/15 11:26:09;;;;;;;12.97;12.07;;;;;;;;;;4991148;28;20457;-43
2023/08/15 11:28:37;;;;;;;13.53;12.27;;;;;;;;;;4991020;28;20434;-41
2023/08/15 11:31:07;;;;;;;13.10;12.07;;;;;;;;;;4991074;28;20433;-43
2023/08/15 11:33:49;;;;;;;11.63;10.70;;;;;;;;;;4990470;28;20453;-42
2023/08/15 11:36:17;;;;;;;12.17;11.17;;;;;;;;;;4990641;28;20492;-44
2023/08/15 11:38:44;;;;;;;12.63;11.53;;;;;;;;;;4990987;28;20535;-41
2023/08/15 11:41:12;;;;;;;11.90;10.77;;;;;;;;;;4991137;28;20528;-42
2023/08/15 11:43:40;;;;;;;15.40;11.47;;;;;;;;;;4990557;28;20826;-42
2023/08/15 11:46:09;;;;;;;11.20;10.30;;;;;;;;;;4990736;28;20487;-41
2023/08/15 11:48:37;;;;;;;15.63;12.07;;;;;;;;;;5000658;28;20433;-44
2023/08/15 11:51:05;;;;;;;14.93;13.40;;;;;;;;;;5001515;28;20429;-43
2023/08/15 11:53:33;;;;;;;15.20;13.70;;;;;;;;;;5000206;28;20457;-43
2023/08/15 11:56:00;;;;;;;15.13;13.70;;;;;;;;;;5001329;28;20453;-44
2023/08/15 11:58:28;;;;;;;14.80;12.90;;;;;;;;;;5000253;28;20544;-40
2023/08/15 12:00:56;;;;;;;13.27;11.83;;;;;;;;;;5000491;28;20476;-40
2023/08/15 12:03:27;;;;;;;14.27;12.93;;;;;;;;;;4999628;28;20437;-41
2023/08/15 12:05:55;;;;;;;13.93;12.40;;;;;;;;;;5000818;28;20888;-40
2023/08/15 12:08:24;;;;;;;14.13;12.93;;;;;;;;;;5001034;28;20221;-41
2023/08/15 12:10:53;;;;;;;15.60;13.10;;;;;;;;;;5001150;28;20437;-42
2023/08/15 12:13:28;;;;;;;14.40;13.20;;;;;;;;;;5000234;28;20434;-41
2023/08/15 12:15:56;;;;;;;16.70;15.30;;;;;;;;;;5002293;28;20511;-43
2023/08/15 12:18:23;;;;;;;15.27;13.77;;;;;;;;;;5004828;28;20440;-41
2023/08/15 12:20:53;;;;;;;23.57;15.43;;;;;;;;;;5006091;28;20480;-42
2023/08/15 12:23:20;;;;;;;16.33;15.03;;;;;;;;;;5003663;28;20438;-41
2023/08/15 12:25:55;;;;;;;17.13;15.60;;;;;;;;;;5004533;28;20532;-44
2023/08/15 12:28:23;;;;;;;15.20;13.70;;;;;;;;;;5004125;28;20501;-41
2023/08/15 12:30:50;;;;;;;12.80;11.63;;;;;;;;;;5005292;28;20434;-42
2023/08/15 12:33:18;;;;;;;11.73;10.63;;;;;;;;;;5004812;28;20461;-43
2023/08/15 12:36:07;;;;;;;13.50;12.00;;;;;;;;;;5006460;28;20459;-40
2023/08/15 12:38:34;;;;;;;11.43;10.43;;;;;;;;;;5004409;28;20464;-41
2023/08/15 12:41:02;;;;;;;11.73;10.63;;;;;;;;;;5004585;28;20882;-42
2023/08/15 12:43:30;;;;;;;10.13;9.10;;;;;;;;;;5004265;28;20457;-41
2023/08/15 12:45:57;;;;;;;9.00;8.20;;;;;;;;;;5004301;28;20523;-40
2023/08/15 12:48:25;;;;;;;9.23;7.23;;;;;;;;;;5004535;28;20553;-42
2023/08/15 12:50:53;;;;;;;8.10;6.50;;;;;;;;;;5004134;28;20438;-43
2023/08/15 12:53:23;;;;;;;6.30;5.77;;;;;;;;;;5003087;28;20437;-44
2023/08/15 12:55:50;;;;;;;6.53;5.27;;;;;;;;;;5003078;28;20437;-40
2023/08/15 12:58:18;;;;;;;9.67;6.40;;;;;;;;;;5004276;28;20881;-44
2023/08/15 13:00:48;;;;;;;11.50;5.57;;;;;;;;;;5003672;28;20433;-41
2023/08/15 13:03:16;;;;;;;7.63;5.37;;;;;;;;;;5003884;28;20418;-40
2023/08/15 13:05:44;;;;;;;4.63;4.27;;;;;;;;;;5017119;28;20424;-42
2023/08/15 13:08:11;;;;;;;4.93;3.87;;;;;;;;;;5023041;28;20475;-43
2023/08/15 13:10:40;;;;;;;6.87;3.63;;;;;;;;;;5023719;28;20456;-41
2023/08/15 13:13:10;;;;;;;4.47;4.10;;;;;;;;;;5022278;28;20417;-41
2023/08/15 13:15:37;;;;;;;4.13;3.83;;;;;;;;;;5022708;28;20467;-46
2023/08/15 13:18:05;;;;;;;4.50;4.10;;;;;;;;;;5023946;28;20428;-41
2023/08/15 13:20:33;;;;;;;4.83;4.40;;;;;;;;;;5024217;28;20444;-41
2023/08/15 13:23:01;;;;;;;5.03;4.73;;;;;;;;;;5025015;28;20848;-42
2023/08/15 13:25:29;;;;;;;4.60;4.37;;;;;;;;;;5022971;28;20496;-45
2023/08/15 13:27:58;;;;;;;4.57;4.17;;;;;;;;;;5023083;28;20467;-42
2023/08/15 13:30:26;;;;;;;4.03;3.63;;;;;;;;;;5023768;28;20433;-41
2023/08/15 13:32:54;;;;;;;4.03;3.63;;;;;;;;;;5022262;28;20444;-41
2023/08/15 13:35:22;;;;;;;3.50;3.30;;;;;;;;;;5022260;28;20456;-43
2023/08/15 13:37:49;;;;;;;4.17;3.83;;;;;;;;;;5023217;28;20866;-43
2023/08/15 13:40:17;;;;;;;4.53;3.50;;;;;;;;;;5022784;28;20444;-40
2023/08/15 13:42:44;;;;;;;3.60;3.40;;;;;;;;;;5022963;28;20472;-41
2023/08/15 13:45:14;;;;;;;3.90;3.60;;;;;;;;;;5022570;28;20457;-43
2023/08/15 13:47:42;;;;;;;4.00;3.70;;;;;;;;;;5024652;28;20492;-42
2023/08/15 13:50:10;;;;;;;5.13;4.50;;;;;;;;;;5023780;28;20477;-42
2023/08/15 13:52:37;;;;;;;4.93;3.70;;;;;;;;;;5023825;28;20429;-40
2023/08/15 13:55:05;;;;;;;3.77;3.57;;;;;;;;;;5022950;28;20464;-40
2023/08/15 13:57:33;;;;;;;12.40;4.70;;;;;;;;;;5024272;28;20464;-40
2023/08/15 14:00:01;;;;;;;4.33;4.00;;;;;;;;;;5024440;28;20468;-40
2023/08/15 14:02:30;;;;;;;5.87;4.03;;;;;;;;;;5022847;28;20535;-40
2023/08/15 14:05:00;;;;;;;4.20;3.50;;;;;;;;;;5021474;28;20456;-41
2023/08/15 14:07:28;;;;;;;4.10;3.90;;;;;;;;;;5022391;28;20488;-41
2023/08/15 14:09:55;;;;;;;4.10;3.80;;;;;;;;;;5021817;28;20472;-41
2023/08/15 14:12:24;;;;;;;4.03;3.83;;;;;;;;;;5022669;28;20436;-42
2023/08/15 14:14:52;;;;;;;4.40;4.00;;;;;;;;;;5022812;28;20768;-43
2023/08/15 14:17:20;;;;;;;3.83;3.53;;;;;;;;;;5022906;28;20552;-42
2023/08/15 14:19:49;;;;;;;3.97;3.43;;;;;;;;;;5022041;28;20436;-45
2023/08/15 14:22:16;;;;;;;4.07;3.87;;;;;;;;;;5021477;28;20440;-42
2023/08/15 14:24:48;;;;;;;4.03;3.83;;;;;;;;;;5020579;28;20543;-45
2023/08/15 14:27:16;;;;;;;3.80;3.40;;;;;;;;;;5022733;28;20962;-42